Weather at Carzan Rongai Airport

Public forecast

Using degrees Celsius for public forecast. Weather courtesy of forecast.io.

Closest aviation weather report (METAR) to Carzan Rongai Airport

Closest report is Nakuru Airport, 18.8 nm (34.9 km) ESE.

2024/07/19 09:00 (retrieved 48 minutes ago)

HKNK 190900Z 17005KT 9999FEW022 BKN080 21/13

Closest aviation forecast (TAF) to Carzan Rongai Airport

Closest forecast is Eldoret International Airport, 51.9 nm (96.0 km) NW.

2024/07/19 06:54 (retrieved 3 hours ago)

TAF TAF HKEL 190500Z 1906/2012 14005KT 9999 SCT016 BKN080 BECM 1908/1911FEW020CB BKN022 TEMPO 1912/1916 VRB10KT -TSRA FEW019CB SCT020 BKN080 BECMG 1918/1921 VRB03KT NSW SCT018 BKN080 BECMG 2008/2011 SCT021 BKN080